Time;durP1;ratioP1;P1;durP2;ratioP2;P2;SDS_P1;SDS_P2;PMS_P1;PMS_P2;Temp;Humidity;BMP_temperature;BMP_pressure;BME280_temperature;BME280_humidity;BME280_pressure;Samples;Min_cycle;Max_cycle;Signal;HPM_P1;HPM_P2
2023/12/24 00:02:28;;;;;;;8.32;2.17;;;11.30;99.90;;;;;;6370656;22;20010;-93
2023/12/24 00:05:14;;;;;;;11.38;2.03;;;11.40;99.90;;;;;;6341058;22;20014;-93
2023/12/24 00:08:04;;;;;;;8.55;2.55;;;10.50;99.90;;;;;;6341958;22;20003;-93
2023/12/24 00:10:39;;;;;;;;;;;10.50;99.90;;;;;;6339105;22;20013;-90
2023/12/24 00:13:07;;;;;;;7.95;1.95;;;10.20;99.90;;;;;;6343783;22;19910;-92
2023/12/24 00:15:38;;;;;;;11.63;2.13;;;10.50;99.90;;;;;;6342192;22;19999;-95
2023/12/24 00:18:08;;;;;;;;;;;11.20;99.90;;;;;;6355006;22;19994;-92
2023/12/24 00:24:30;;;;;;;;;;;;;;;;;;;;;
2023/12/24 00:42:23;;;;;;;10.27;2.30;;;10.60;99.90;;;;;;6346794;22;20030;-94
2023/12/24 00:53:02;;;;;;;14.50;1.98;;;10.50;99.90;;;;;;6377121;22;20015;-94
2023/12/24 00:55:32;;;;;;;11.52;2.80;;;10.90;99.90;;;;;;6321153;22;20021;-95
2023/12/24 00:58:20;;;;;;;17.85;1.95;;;11.10;99.90;;;;;;6381380;22;20414;-96
2023/12/24 01:00:57;;;;;;;14.25;2.67;;;10.40;99.90;;;;;;6378510;22;19999;-94
2023/12/24 01:44:18;;;;;;;;;;;;;;;;;;;;;
2023/12/24 01:47:46;;;;;;;;;;;;;;;;;;;;;
2023/12/24 01:58:26;;;;;;;14.05;2.70;;;10.30;99.90;;;;;;6377797;22;20013;-91
2023/12/24 02:34:09;;;;;;;18.10;2.75;;;9.60;99.90;;;;;;6217298;23;20055;-94
2023/12/24 02:37:11;;;;;;;12.68;1.73;;;10.20;99.90;;;;;;6216047;23;20005;-92
2023/12/24 02:39:48;;;;;;;8.63;1.98;;;9.90;99.90;;;;;;6213314;23;20345;-92
2023/12/24 02:52:16;;;;;;;3.58;0.95;;;10.70;99.90;;;;;;6195334;23;20008;-95
2023/12/24 02:54:57;;;;;;;7.75;1.10;;;11.10;99.90;;;;;;6190622;23;20008;-96
2023/12/24 03:01:17;;;;;;;2.40;0.65;;;10.30;99.90;;;;;;6237533;23;19996;-93
2023/12/24 03:07:05;;;;;;;0.68;0.40;;;10.20;99.90;;;;;;6250476;23;20007;-88
2023/12/24 03:09:31;;;;;;;6.30;1.60;;;11.20;99.90;;;;;;6244697;23;20012;-90
2023/12/24 03:12:20;;;;;;;6.00;1.10;;;11.30;99.90;;;;;;6390569;22;19991;-94
2023/12/24 03:15:26;;;;;;;2.53;1.20;;;11.30;99.90;;;;;;6390250;22;20018;-94
2023/12/24 03:18:50;;;;;;;7.35;0.93;;;9.90;99.90;;;;;;6373314;22;20018;-94
2023/12/24 03:21:34;;;;;;;2.20;0.90;;;10.40;99.90;;;;;;6372555;22;20010;-93
2023/12/24 03:24:38;;;;;;;;;;;;;;;;;;;;;
2023/12/24 03:27:10;;;;;;;7.90;1.23;;;10.30;99.90;;;;;;6266638;22;20089;-94
2023/12/24 03:33:04;;;;;;;4.22;1.13;;;9.60;99.90;;;;;;6373881;22;20021;-95
2023/12/24 03:35:45;;;;;;;5.30;0.85;;;10.30;99.90;;;;;;6372864;22;20330;-94
2023/12/24 04:21:14;;;;;;;7.60;2.00;;;10.40;99.90;;;;;;6247032;22;20015;-92
2023/12/24 04:59:59;;;;;;;15.93;3.72;;;10.50;99.90;;;;;;6215374;23;20024;-93
2023/12/24 05:02:30;;;;;;;20.08;3.38;;;11.70;99.90;;;;;;6250921;22;20008;-94
2023/12/24 05:05:09;;;;;;;13.95;4.20;;;11.80;99.90;;;;;;6309053;22;20007;-94
2023/12/24 05:07:41;;;;;;;14.52;2.50;;;10.50;99.90;;;;;;6308416;22;20003;-92
2023/12/24 05:10:16;;;;;;;20.55;3.28;;;10.90;99.90;;;;;;6308881;22;20027;-92
2023/12/24 05:12:50;;;;;;;18.42;3.60;;;11.80;99.90;;;;;;6308425;22;20039;-93
2023/12/24 05:15:17;;;;;;;15.20;3.38;;;12.10;99.90;;;;;;6308750;22;20009;-93
2023/12/24 05:17:43;;;;;;;19.45;3.53;;;10.60;99.90;;;;;;6308843;22;19996;-93
2023/12/24 05:26:51;;;;;;;19.35;3.85;;;10.60;99.90;;;;;;6333211;22;20039;-92
2023/12/24 05:29:35;;;;;;;25.38;2.80;;;11.70;99.90;;;;;;6335459;22;20004;-90
2023/12/24 05:35:23;;;;;;;19.50;4.15;;;10.60;99.90;;;;;;6314637;22;20068;-92
2023/12/24 05:42:02;;;;;;;21.13;3.58;;;9.90;99.90;;;;;;6313308;22;20005;-93
2023/12/24 05:45:02;;;;;;;;;;;;;;;;;;;;;
2023/12/24 05:48:03;;;;;;;14.85;3.15;;;10.80;99.90;;;;;;6232851;22;20012;-95
2023/12/24 05:51:11;;;;;;;17.05;4.15;;;10.80;99.90;;;;;;6226328;23;20005;-94
2023/12/24 05:53:46;;;;;;;17.15;4.28;;;10.80;99.90;;;;;;6218784;23;20084;-91
2023/12/24 05:56:18;;;;;;;18.42;2.63;;;10.80;99.90;;;;;;6215099;23;20011;-92
2023/12/24 05:58:52;;;;;;;17.70;4.28;;;11.80;99.90;;;;;;6304890;22;20022;-94
2023/12/24 06:01:45;;;;;;;22.80;3.53;;;11.80;99.90;;;;;;6340230;22;19999;-92
2023/12/24 06:04:37;;;;;;;17.63;3.35;;;10.80;99.90;;;;;;6342031;22;19999;-91
2023/12/24 06:07:14;;;;;;;24.08;3.92;;;10.80;99.90;;;;;;6343397;22;20003;-89
2023/12/24 06:10:01;;;;;;;26.52;4.38;;;11.00;99.90;;;;;;6340662;22;19999;-92
2023/12/24 06:15:55;;;;;;;27.73;3.83;;;11.70;99.90;;;;;;6341014;22;20036;-91
2023/12/24 06:19:12;;;;;;;35.05;4.88;;;10.00;99.90;;;;;;6341029;22;19995;-93
2023/12/24 06:21:47;;;;;;;26.08;3.45;;;10.70;99.90;;;;;;6340849;22;20073;-91
2023/12/24 06:24:24;;;;;;;28.65;5.25;;;11.60;99.90;;;;;;6345459;22;20058;-94
2023/12/24 06:26:54;;;;;;;36.67;5.38;;;11.30;99.90;;;;;;6340980;22;19999;-90
2023/12/24 06:29:20;;;;;;;29.15;6.32;;;12.00;99.90;;;;;;6341503;22;20003;-92
2023/12/24 06:31:50;;;;;;;30.00;4.70;;;11.20;99.90;;;;;;6341387;22;20037;-92
2023/12/24 06:34:30;;;;;;;25.65;5.05;;;10.80;99.90;;;;;;6342194;22;20010;-91
2023/12/24 06:37:08;;;;;;;33.83;5.67;;;10.90;99.90;;;;;;6342647;22;20125;-92
2023/12/24 06:39:52;;;;;;;23.92;5.05;;;11.80;99.90;;;;;;6355701;22;20248;-94
2023/12/24 06:42:29;;;;;;;39.80;6.03;;;12.10;99.90;;;;;;6350578;22;20007;-91
2023/12/24 06:44:58;;;;;;;34.80;5.50;;;10.90;99.90;;;;;;6340398;22;20015;-93
2023/12/24 06:47:43;;;;;;;35.28;6.05;;;12.00;99.90;;;;;;6339673;22;20005;-91
2023/12/24 06:50:17;;;;;;;27.75;4.68;;;10.90;99.90;;;;;;6339089;22;20003;-91
2023/12/24 06:52:44;;;;;;;29.63;4.60;;;11.70;99.90;;;;;;6340288;22;20010;-92
2023/12/24 06:55:24;;;;;;;34.72;5.70;;;12.00;99.90;;;;;;6311947;22;20086;-91
2023/12/24 06:57:52;;;;;;;28.83;5.55;;;11.10;99.90;;;;;;6348171;22;20024;-92
2023/12/24 07:00:27;;;;;;;38.88;5.50;;;11.00;99.90;;;;;;6339276;22;20030;-92
2023/12/24 07:06:16;;;;;;;30.70;5.10;;;11.50;99.90;;;;;;6223545;23;20001;-94
2023/12/24 07:08:51;;;;;;;26.08;5.18;;;11.10;99.90;;;;;;6218562;23;20088;-92
2023/12/24 07:14:56;;;;;;;39.30;7.35;;;11.00;99.90;;;;;;6343681;22;20053;-94
2023/12/24 07:17:25;;;;;;;35.30;5.50;;;11.50;99.90;;;;;;6350163;22;20046;-93
2023/12/24 07:25:48;;;;;;;33.97;5.25;;;11.10;99.90;;;;;;6359829;22;20030;-92
2023/12/24 07:28:13;;;;;;;32.15;6.25;;;11.00;99.90;;;;;;6375438;22;20008;-87
2023/12/24 07:36:20;;;;;;;29.25;4.32;;;11.10;99.90;;;;;;6368342;22;20086;-94
2023/12/24 07:51:53;;;;;;;13.13;2.40;;;11.10;99.90;;;;;;6361628;22;20112;-92
2023/12/24 07:54:25;;;;;;;15.15;3.00;;;11.80;99.90;;;;;;6402258;22;20009;-89
2023/12/24 07:56:52;;;;;;;8.32;2.00;;;10.40;99.90;;;;;;6401044;22;20006;-89
2023/12/24 07:59:19;;;;;;;12.60;2.53;;;11.00;99.90;;;;;;6401461;22;19998;-89
2023/12/24 08:01:45;;;;;;;12.38;3.28;;;11.10;99.90;;;;;;6400194;22;20020;-85
2023/12/24 08:04:11;;;;;;;12.77;3.05;;;11.90;99.90;;;;;;6398363;22;20438;-87
2023/12/24 08:09:37;;;;;;;8.90;2.72;;;11.20;99.90;;;;;;6365052;22;20437;-86
2023/12/24 08:12:04;;;;;;;22.90;4.25;;;11.10;99.90;;;;;;6397194;22;20024;-90
2023/12/24 08:15:22;;;;;;;18.70;4.10;;;11.10;99.90;;;;;;6401271;22;20078;-88
2023/12/24 08:17:48;;;;;;;17.58;3.45;;;11.10;99.90;;;;;;6282116;22;20009;-85
2023/12/24 08:20:14;;;;;;;15.55;3.67;;;12.00;99.90;;;;;;6399635;22;20012;-85
2023/12/24 08:22:40;;;;;;;23.25;4.20;;;11.70;99.90;;;;;;6399068;22;20345;-87
2023/12/24 08:25:07;;;;;;;29.02;5.35;;;12.10;99.90;;;;;;6398301;22;19997;-85
2023/12/24 08:27:34;;;;;;;37.00;5.47;;;11.20;99.90;;;;;;6404781;22;20050;-87
2023/12/24 08:30:01;;;;;;;36.60;5.88;;;11.20;99.90;;;;;;6411150;22;20001;-89
2023/12/24 08:32:33;;;;;;;33.53;6.25;;;11.20;99.90;;;;;;6402965;22;20537;-89
2023/12/24 08:35:00;;;;;;;30.67;5.35;;;11.20;99.90;;;;;;6402282;22;19998;-84
2023/12/24 08:37:33;;;;;;;42.58;6.53;;;11.20;99.90;;;;;;6417841;22;20002;-88
2023/12/24 08:39:59;;;;;;;37.83;6.38;;;11.90;99.90;;;;;;6421206;22;20024;-93
2023/12/24 08:42:32;;;;;;;34.78;5.97;;;11.20;99.90;;;;;;6427867;22;20023;-89
2023/12/24 08:44:59;;;;;;;36.63;6.88;;;12.00;99.90;;;;;;6418289;22;20410;-87
2023/12/24 08:47:26;;;;;;;32.95;5.50;;;11.30;99.90;;;;;;6403785;22;19994;-90
2023/12/24 08:49:53;;;;;;;30.20;6.38;;;11.20;99.90;;;;;;6401616;22;20046;-87
2023/12/24 08:52:20;;;;;;;32.65;5.13;;;11.20;99.90;;;;;;6399420;22;20360;-87
2023/12/24 08:54:46;;;;;;;41.85;6.28;;;11.20;99.90;;;;;;6398881;22;20034;-85
2023/12/24 08:57:13;;;;;;;33.53;6.43;;;11.30;99.90;;;;;;6395768;22;20414;-88
2023/12/24 08:59:40;;;;;;;37.75;6.22;;;11.20;99.90;;;;;;6398031;22;20002;-87
2023/12/24 09:02:06;;;;;;;45.08;7.10;;;11.30;99.90;;;;;;6400285;22;20441;-85
2023/12/24 09:04:32;;;;;;;42.55;5.00;;;11.30;99.90;;;;;;6398338;22;20002;-86
2023/12/24 09:06:57;;;;;;;32.78;6.00;;;11.50;99.90;;;;;;6399309;22;20001;-87
2023/12/24 09:09:24;;;;;;;30.13;5.65;;;11.30;99.90;;;;;;6398772;22;20005;-86
2023/12/24 09:11:50;;;;;;;36.08;6.38;;;11.30;99.90;;;;;;6397760;22;20050;-91
2023/12/24 09:14:21;;;;;;;31.48;5.40;;;11.30;99.90;;;;;;6400918;22;20396;-86
2023/12/24 09:16:48;;;;;;;37.45;6.78;;;11.70;99.90;;;;;;6399647;22;20418;-89
2023/12/24 09:19:14;;;;;;;43.83;7.55;;;11.30;99.90;;;;;;6403121;22;20009;-88
2023/12/24 09:21:41;;;;;;;49.85;7.63;;;12.40;99.90;;;;;;6399976;22;20001;-87
2023/12/24 09:24:07;;;;;;;44.88;7.55;;;11.40;99.90;;;;;;6402488;22;19998;-85
2023/12/24 09:26:33;;;;;;;41.30;5.75;;;11.40;99.90;;;;;;6400160;22;20001;-84
2023/12/24 09:28:58;;;;;;;58.80;7.93;;;11.40;99.90;;;;;;6396206;22;20040;-86
2023/12/24 09:31:24;;;;;;;45.22;7.47;;;11.40;99.90;;;;;;6398698;22;20384;-87
2023/12/24 09:33:49;;;;;;;47.00;9.80;;;11.40;99.90;;;;;;6399612;22;20017;-87
2023/12/24 09:36:16;;;;;;;46.55;7.70;;;11.40;99.90;;;;;;6399935;22;20069;-86
2023/12/24 09:38:43;;;;;;;62.22;9.35;;;11.40;99.90;;;;;;6392744;22;20544;-85
2023/12/24 09:41:08;;;;;;;51.50;7.63;;;11.50;99.90;;;;;;6395234;22;20010;-84
2023/12/24 09:43:37;;;;;;;52.22;8.27;;;11.50;99.90;;;;;;6395273;22;20352;-87
2023/12/24 09:46:04;;;;;;;49.78;8.00;;;11.60;99.90;;;;;;6396142;22;20021;-90
2023/12/24 09:48:30;;;;;;;41.97;6.72;;;11.60;99.90;;;;;;6398734;22;19998;-88
2023/12/24 09:50:55;;;;;;;50.03;7.68;;;11.60;99.90;;;;;;6397632;22;20010;-90
2023/12/24 09:53:31;;;;;;;32.08;6.82;;;11.60;99.90;;;;;;6398550;22;20049;-90
2023/12/24 09:55:59;;;;;;;42.13;6.50;;;11.60;99.90;;;;;;6402775;22;20089;-90
2023/12/24 09:58:26;;;;;;;49.08;6.80;;;11.70;99.90;;;;;;6401709;22;19998;-90
2023/12/24 10:00:52;;;;;;;40.72;6.63;;;11.70;99.90;;;;;;6407834;22;20575;-87
2023/12/24 10:03:22;;;;;;;56.60;7.82;;;11.70;99.90;;;;;;6421437;22;20013;-90
2023/12/24 10:06:03;;;;;;;45.80;5.80;;;11.80;99.90;;;;;;6406350;22;20002;-87
2023/12/24 10:08:31;;;;;;;48.78;9.32;;;11.80;99.90;;;;;;6398545;22;20502;-89
2023/12/24 10:11:10;;;;;;;37.33;7.10;;;11.80;99.90;;;;;;6400183;22;20002;-87
2023/12/24 10:13:40;;;;;;;41.70;6.65;;;11.80;99.90;;;;;;6399265;22;20013;-91
2023/12/24 10:16:07;;;;;;;43.45;6.88;;;12.20;99.90;;;;;;6407372;22;19998;-87
2023/12/24 10:18:34;;;;;;;41.10;7.03;;;11.80;99.90;;;;;;6404294;22;20002;-88
2023/12/24 10:21:18;;;;;;;45.25;6.53;;;11.80;99.90;;;;;;6401111;22;20001;-90
2023/12/24 10:23:44;;;;;;;35.45;6.57;;;11.80;99.90;;;;;;6404625;22;20002;-90
2023/12/24 10:26:21;;;;;;;44.08;7.88;;;11.80;99.90;;;;;;6402158;22;19997;-89
2023/12/24 10:28:51;;;;;;;34.42;6.10;;;11.80;99.90;;;;;;6400941;22;20002;-91
2023/12/24 10:31:23;;;;;;;36.75;6.60;;;11.80;99.90;;;;;;6403812;22;19998;-91
2023/12/24 10:34:01;;;;;;;44.70;7.80;;;11.80;99.90;;;;;;6400077;22;20673;-88
2023/12/24 10:36:29;;;;;;;37.00;5.35;;;11.80;99.90;;;;;;6405646;22;19998;-89
2023/12/24 10:38:55;;;;;;;26.05;4.85;;;12.80;99.90;;;;;;6405206;22;20001;-87
2023/12/24 10:41:21;;;;;;;22.58;4.95;;;11.80;99.90;;;;;;6404754;22;20024;-89
2023/12/24 10:43:48;;;;;;;34.53;5.72;;;11.80;99.90;;;;;;6406084;22;20002;-91
2023/12/24 10:46:15;;;;;;;26.70;5.20;;;11.90;99.90;;;;;;6404074;22;20006;-92
2023/12/24 10:48:43;;;;;;;14.95;3.20;;;11.80;99.90;;;;;;6403521;22;20005;-89
2023/12/24 10:51:08;;;;;;;21.40;3.90;;;11.80;99.90;;;;;;6403966;22;20050;-88
2023/12/24 10:53:41;;;;;;;18.88;4.45;;;11.80;99.90;;;;;;6400659;22;20010;-89
2023/12/24 10:56:14;;;;;;;20.50;3.72;;;11.80;99.90;;;;;;6401990;22;20006;-87
2023/12/24 10:59:00;;;;;;;15.77;3.65;;;11.70;99.90;;;;;;6401215;22;20375;-89
2023/12/24 11:01:26;;;;;;;17.15;3.35;;;11.70;99.90;;;;;;6400589;22;20010;-86
2023/12/24 11:03:53;;;;;;;9.95;3.35;;;12.10;99.90;;;;;;6397930;22;20009;-85
2023/12/24 11:06:36;;;;;;;15.15;3.40;;;11.80;99.90;;;;;;6400012;22;19998;-88
2023/12/24 11:09:23;;;;;;;20.25;3.40;;;11.70;99.90;;;;;;6400065;22;20001;-89
2023/12/24 11:11:53;;;;;;;13.85;3.95;;;11.70;99.90;;;;;;6377084;22;20002;-87
2023/12/24 11:14:37;;;;;;;20.60;3.55;;;11.80;99.90;;;;;;6400560;22;20017;-87
2023/12/24 11:17:08;;;;;;;19.17;4.68;;;11.80;99.90;;;;;;6400690;22;20002;-85
2023/12/24 11:19:40;;;;;;;15.43;3.45;;;11.80;99.90;;;;;;6398232;22;20387;-86
2023/12/24 11:22:11;;;;;;;23.30;4.45;;;11.80;99.90;;;;;;6377211;22;19990;-87
2023/12/24 11:24:47;;;;;;;27.85;5.07;;;11.80;99.90;;;;;;6418903;22;20018;-88
2023/12/24 11:27:14;;;;;;;23.80;4.00;;;12.60;99.90;;;;;;6405633;22;19997;-87
2023/12/24 11:29:47;;;;;;;17.45;3.92;;;11.80;99.90;;;;;;6401335;22;20006;-87
2023/12/24 11:32:43;;;;;;;16.02;3.63;;;11.80;99.90;;;;;;6401560;22;19998;-93
2023/12/24 11:35:46;;;;;;;19.40;3.78;;;12.60;99.90;;;;;;6370994;22;20039;-91
2023/12/24 11:38:36;;;;;;;22.80;4.03;;;11.80;99.90;;;;;;6396213;22;19994;-92
2023/12/24 11:41:09;;;;;;;27.00;4.50;;;11.90;99.90;;;;;;6403986;22;20435;-90
2023/12/24 11:43:36;;;;;;;19.02;4.00;;;12.10;99.90;;;;;;6402693;22;20001;-85
2023/12/24 11:46:02;;;;;;;21.95;5.95;;;11.90;99.90;;;;;;6404598;22;20012;-88
2023/12/24 11:48:30;;;;;;;22.42;4.93;;;11.90;99.90;;;;;;6408693;22;20021;-90
2023/12/24 11:51:11;;;;;;;36.78;6.03;;;11.90;99.90;;;;;;6417679;22;20021;-90
2023/12/24 11:53:41;;;;;;;20.05;4.57;;;12.60;99.90;;;;;;6355529;22;20019;-91
2023/12/24 11:56:35;;;;;;;31.85;4.85;;;12.60;99.90;;;;;;6342809;22;20816;-93
2023/12/24 11:59:10;;;;;;;32.28;5.60;;;11.90;99.90;;;;;;6341544;22;20085;-89
2023/12/24 12:01:37;;;;;;;26.83;6.28;;;11.80;99.90;;;;;;6338105;22;20074;-86
2023/12/24 12:04:23;;;;;;;27.60;6.63;;;12.90;99.90;;;;;;6351508;22;20067;-87
2023/12/24 12:06:48;;;;;;;34.85;6.13;;;12.90;99.90;;;;;;6312369;22;20010;-85
2023/12/24 12:09:15;;;;;;;33.65;6.28;;;12.50;99.90;;;;;;6306893;22;20039;-89
2023/12/24 12:11:41;;;;;;;27.27;4.85;;;11.90;99.90;;;;;;6306784;22;19996;-89
2023/12/24 12:14:16;;;;;;;29.23;5.10;;;12.90;99.90;;;;;;6306075;22;20328;-90
2023/12/24 12:16:42;;;;;;;32.55;5.45;;;12.70;99.90;;;;;;6302729;22;20004;-85
2023/12/24 12:19:07;;;;;;;32.97;6.03;;;12.50;99.90;;;;;;6303282;22;20018;-82
2023/12/24 12:21:34;;;;;;;26.80;6.03;;;13.10;99.90;;;;;;6302056;22;20003;-86
2023/12/24 12:24:06;;;;;;;32.35;5.28;;;12.00;99.90;;;;;;6306669;22;20076;-90
2023/12/24 12:26:32;;;;;;;27.58;5.97;;;12.10;99.90;;;;;;6306890;22;20049;-90
2023/12/24 12:29:00;;;;;;;24.02;5.25;;;12.40;99.90;;;;;;6307104;22;19999;-93
2023/12/24 12:31:34;;;;;;;29.20;5.78;;;12.00;99.90;;;;;;6307126;22;20071;-91
2023/12/24 12:34:00;;;;;;;21.90;5.60;;;12.00;99.90;;;;;;6306761;22;20046;-88
2023/12/24 12:36:27;;;;;;;34.53;4.78;;;12.00;99.90;;;;;;6307457;22;20039;-87
2023/12/24 12:38:53;;;;;;;21.58;5.10;;;12.00;99.90;;;;;;6306693;22;20018;-90
2023/12/24 12:41:19;;;;;;;33.08;7.00;;;12.10;99.90;;;;;;6305899;22;20006;-91
2023/12/24 12:43:45;;;;;;;29.70;5.45;;;12.50;99.90;;;;;;6315590;22;20011;-90
2023/12/24 12:46:23;;;;;;;22.90;5.38;;;12.00;99.90;;;;;;6328169;22;20059;-90
2023/12/24 12:48:55;;;;;;;26.35;4.78;;;12.10;99.90;;;;;;6308207;22;20102;-88
2023/12/24 12:51:24;;;;;;;36.15;5.55;;;12.80;99.90;;;;;;6311577;22;20086;-92
2023/12/24 12:54:10;;;;;;;33.88;5.25;;;12.10;99.90;;;;;;6372819;22;20064;-93
2023/12/24 12:56:46;;;;;;;44.03;6.55;;;12.10;99.90;;;;;;6372457;22;20100;-90
2023/12/24 12:59:41;;;;;;;42.33;7.57;;;12.10;99.90;;;;;;6380678;22;20078;-92
2023/12/24 13:02:25;;;;;;;50.28;9.98;;;12.00;99.90;;;;;;6373294;22;20037;-94
2023/12/24 13:04:50;;;;;;;39.88;6.90;;;12.00;99.90;;;;;;6370100;22;20011;-85
2023/12/24 13:07:17;;;;;;;52.63;7.63;;;12.00;99.90;;;;;;6365742;22;20002;-92
2023/12/24 13:09:44;;;;;;;32.22;6.85;;;12.50;99.90;;;;;;6373177;22;20010;-85
2023/12/24 13:12:10;;;;;;;46.95;8.45;;;12.00;99.90;;;;;;6366118;22;20429;-88
2023/12/24 13:14:48;;;;;;;42.90;7.55;;;12.00;99.90;;;;;;6367353;22;20014;-86
2023/12/24 13:17:13;;;;;;;49.75;8.50;;;12.00;99.90;;;;;;6365257;22;20002;-88
2023/12/24 13:19:54;;;;;;;28.25;6.68;;;12.00;99.90;;;;;;6371648;22;20006;-92
2023/12/24 13:25:26;;;;;;;39.22;7.55;;;11.30;99.90;;;;;;6335429;22;20019;-89
2023/12/24 13:27:55;;;;;;;43.33;6.72;;;13.00;99.90;;;;;;6339714;22;20024;-92
2023/12/24 13:30:44;;;;;;;42.78;8.02;;;12.00;99.90;;;;;;6340231;22;20019;-88
2023/12/24 13:33:36;;;;;;;32.85;6.70;;;12.00;99.90;;;;;;6340695;22;20029;-91
2023/12/24 13:36:14;;;;;;;32.78;7.07;;;11.70;99.90;;;;;;6328863;22;20015;-93
2023/12/24 13:38:49;;;;;;;32.92;6.32;;;13.30;99.90;;;;;;6341249;22;20022;-93
2023/12/24 13:41:46;;;;;;;34.25;5.72;;;12.80;99.90;;;;;;6349237;22;20011;-95
2023/12/24 13:44:31;;;;;;;35.95;6.00;;;12.10;99.90;;;;;;6335890;22;20021;-82
2023/12/24 13:46:59;;;;;;;30.83;6.22;;;12.00;99.90;;;;;;6338297;22;20003;-93
2023/12/24 13:49:27;;;;;;;40.03;6.15;;;12.50;99.90;;;;;;6340453;22;19999;-91
2023/12/24 13:54:43;;;;;;;30.55;6.45;;;12.30;99.90;;;;;;6344765;22;20075;-92
2023/12/24 13:57:15;;;;;;;20.02;4.70;;;12.70;99.90;;;;;;6341637;22;20464;-93
2023/12/24 14:00:03;;;;;;;27.65;4.45;;;13.00;99.90;;;;;;6340706;22;20434;-91
2023/12/24 14:02:57;;;;;;;23.35;4.40;;;12.00;99.90;;;;;;6341210;22;20327;-91
2023/12/24 14:05:23;;;;;;;24.25;5.00;;;12.00;99.90;;;;;;6347437;22;20002;-93
2023/12/24 14:08:41;;;;;;;24.60;5.00;;;12.50;99.90;;;;;;6360913;22;20003;-91
2023/12/24 14:11:25;;;;;;;26.05;4.80;;;12.00;99.90;;;;;;6340286;22;20124;-93
2023/12/24 14:14:43;;;;;;;22.85;4.22;;;13.00;99.90;;;;;;6311910;22;20152;-91
2023/12/24 14:17:24;;;;;;;25.35;4.75;;;12.30;99.90;;;;;;6339291;22;20052;-92
2023/12/24 14:20:04;;;;;;;21.30;4.43;;;12.80;99.90;;;;;;6340351;22;20014;-91
2023/12/24 14:25:15;;;;;;;20.35;3.83;;;12.00;99.90;;;;;;6343024;22;20033;-89
2023/12/24 14:27:42;;;;;;;20.00;2.92;;;11.90;99.90;;;;;;6336635;22;20010;-90
2023/12/24 14:30:23;;;;;;;14.20;2.60;;;12.00;99.90;;;;;;6343001;22;20026;-92
2023/12/24 14:32:59;;;;;;;12.40;2.72;;;12.40;99.90;;;;;;6346107;22;20008;-94
2023/12/24 14:35:28;;;;;;;15.98;3.40;;;12.70;99.90;;;;;;6338091;22;20017;-92
2023/12/24 14:38:11;;;;;;;11.45;2.88;;;13.40;99.90;;;;;;6341851;22;19998;-91
2023/12/24 14:40:37;;;;;;;12.68;2.42;;;12.90;99.90;;;;;;6340820;22;20003;-92
2023/12/24 14:43:21;;;;;;;8.50;2.33;;;12.10;99.90;;;;;;6339752;22;20007;-92
2023/12/24 14:45:53;;;;;;;8.40;1.98;;;12.70;99.90;;;;;;6355213;22;20002;-94
2023/12/24 14:48:39;;;;;;;10.73;2.58;;;11.90;99.90;;;;;;6359130;22;19994;-93
2023/12/24 14:51:09;;;;;;;11.07;2.30;;;11.90;99.90;;;;;;6358573;22;20006;-94
2023/12/24 14:53:35;;;;;;;11.48;3.17;;;12.90;99.90;;;;;;6349733;22;20015;-86
2023/12/24 15:01:54;;;;;;;8.82;2.13;;;11.80;99.90;;;;;;6340689;22;20042;-90
2023/12/24 15:04:48;;;;;;;11.88;2.55;;;11.90;99.90;;;;;;6340048;22;20006;-90
2023/12/24 15:07:15;;;;;;;17.17;2.95;;;11.90;99.90;;;;;;6340912;22;20018;-93
2023/12/24 15:09:59;;;;;;;12.07;2.83;;;12.80;99.90;;;;;;6340359;22;20014;-93
2023/12/24 15:12:27;;;;;;;22.42;3.65;;;11.90;99.90;;;;;;6341852;22;20033;-93
2023/12/24 15:15:13;;;;;;;14.68;3.35;;;12.30;99.90;;;;;;6341161;22;20037;-88
2023/12/24 15:18:00;;;;;;;22.35;3.72;;;10.30;99.90;;;;;;6337932;22;20081;-87
2023/12/24 15:20:32;;;;;;;19.27;2.95;;;11.80;99.90;;;;;;6337554;22;20002;-89
2023/12/24 15:23:16;;;;;;;13.07;3.63;;;12.80;99.90;;;;;;6337906;22;20078;-91
2023/12/24 15:25:43;;;;;;;17.85;2.83;;;12.60;99.90;;;;;;6339024;22;20003;-90
2023/12/24 15:28:24;;;;;;;17.00;3.20;;;12.60;99.90;;;;;;6381712;22;20134;-89
2023/12/24 15:30:50;;;;;;;13.02;3.20;;;12.70;99.90;;;;;;6373124;22;20019;-93
2023/12/24 15:33:33;;;;;;;16.75;2.80;;;12.60;99.90;;;;;;6313209;22;20087;-92
2023/12/24 15:36:05;;;;;;;15.07;2.80;;;12.50;99.90;;;;;;6340088;22;20006;-90
2023/12/24 15:38:36;;;;;;;17.70;3.13;;;11.80;99.90;;;;;;6346410;22;20003;-93
2023/12/24 15:43:44;;;;;;;22.70;4.28;;;11.90;99.90;;;;;;6318203;22;20019;-94
2023/12/24 15:46:19;;;;;;;26.13;4.80;;;12.70;99.90;;;;;;6305740;22;20354;-93
2023/12/24 15:58:34;;;;;;;28.95;5.38;;;11.90;99.90;;;;;;6326118;22;20033;-92
2023/12/24 16:01:24;;;;;;;26.95;4.25;;;12.10;99.90;;;;;;6340851;22;20007;-92
2023/12/24 16:03:52;;;;;;;27.63;5.67;;;11.80;99.90;;;;;;6334864;22;20338;-90
2023/12/24 16:06:18;;;;;;;22.70;4.43;;;12.50;99.90;;;;;;6311758;22;20094;-91
2023/12/24 16:09:00;;;;;;;34.72;5.70;;;11.90;99.90;;;;;;6325780;22;20018;-91
2023/12/24 16:17:26;;;;;;;40.20;7.68;;;11.90;99.90;;;;;;6335326;22;20473;-82
2023/12/24 16:20:22;;;;;;;29.10;6.15;;;13.30;99.90;;;;;;6334651;22;20034;-87
2023/12/24 16:22:51;;;;;;;25.02;5.72;;;11.90;99.90;;;;;;6337217;22;20015;-87
2023/12/24 16:25:26;;;;;;;26.98;5.43;;;11.90;99.90;;;;;;6336840;22;20083;-89
2023/12/24 16:28:10;;;;;;;24.08;4.63;;;12.00;99.90;;;;;;6336883;22;20005;-90
2023/12/24 16:30:37;;;;;;;36.92;6.43;;;12.80;99.90;;;;;;6334703;22;20002;-85
2023/12/24 16:33:18;;;;;;;30.75;5.32;;;12.00;99.90;;;;;;6340088;22;20032;-91
2023/12/24 16:39:55;;;;;;;45.15;6.20;;;12.00;99.90;;;;;;6210957;23;20013;-91
2023/12/24 16:42:51;;;;;;;32.45;5.18;;;11.70;99.90;;;;;;6212545;23;19996;-92
2023/12/24 16:45:22;;;;;;;30.73;6.10;;;12.00;99.90;;;;;;6209221;23;20079;-86
2023/12/24 16:51:42;;;;;;;33.63;5.72;;;12.00;99.90;;;;;;6227859;23;20081;-91
2023/12/24 16:55:09;;;;;;;31.88;5.28;;;11.70;99.90;;;;;;6217638;23;20109;-90
2023/12/24 16:57:53;;;;;;;45.03;7.13;;;11.60;99.90;;;;;;6212099;23;20072;-93
2023/12/24 17:01:08;;;;;;;47.17;7.65;;;12.90;99.90;;;;;;6212258;23;20504;-90
2023/12/24 17:03:46;;;;;;;29.58;6.03;;;12.20;99.90;;;;;;6319380;22;20023;-90
2023/12/24 17:06:12;;;;;;;34.55;6.05;;;12.90;99.90;;;;;;6328491;22;20027;-90
2023/12/24 17:08:57;;;;;;;37.28;5.50;;;12.60;99.90;;;;;;6305527;22;20035;-90
2023/12/24 17:11:48;;;;;;;49.80;7.35;;;12.60;99.90;;;;;;6306317;22;20007;-90
2023/12/24 17:14:38;;;;;;;28.77;5.60;;;12.30;99.90;;;;;;6306893;22;20023;-87
2023/12/24 17:20:55;;;;;;;36.88;7.25;;;11.70;99.90;;;;;;6209601;23;20013;-91
2023/12/24 17:23:44;;;;;;;35.55;7.47;;;12.80;99.90;;;;;;6209742;23;20000;-90
2023/12/24 17:26:10;;;;;;;31.80;6.18;;;12.20;99.90;;;;;;6205049;23;20115;-87
2023/12/24 17:28:57;;;;;;;34.45;7.07;;;12.20;99.90;;;;;;6209510;23;20016;-87
2023/12/24 17:31:39;;;;;;;29.20;5.65;;;12.20;99.90;;;;;;6209138;23;20004;-94
2023/12/24 17:34:56;;;;;;;31.80;5.32;;;12.20;99.90;;;;;;6215792;23;20017;-91
2023/12/24 17:43:31;;;;;;;45.63;7.07;;;12.30;99.90;;;;;;6342898;22;20040;-89
2023/12/24 17:45:58;;;;;;;41.38;5.68;;;13.10;99.90;;;;;;6338677;22;20003;-87
2023/12/24 17:48:29;;;;;;;46.35;6.88;;;12.20;99.90;;;;;;6335476;22;20010;-86
2023/12/24 17:50:55;;;;;;;50.10;7.82;;;12.40;99.90;;;;;;6336173;22;19991;-85
2023/12/24 17:53:22;;;;;;;33.15;5.68;;;11.60;99.90;;;;;;6337225;22;20063;-87
2023/12/24 17:55:48;;;;;;;56.53;8.05;;;12.80;99.90;;;;;;6338295;22;20450;-87
2023/12/24 17:58:15;;;;;;;34.15;6.05;;;12.60;99.90;;;;;;6339047;22;20060;-88
2023/12/24 18:00:41;;;;;;;38.30;6.22;;;12.20;99.90;;;;;;6338588;22;20014;-88
2023/12/24 18:03:11;;;;;;;39.00;6.57;;;12.20;99.90;;;;;;6337636;22;20003;-89
2023/12/24 18:05:57;;;;;;;34.35;6.22;;;12.20;99.90;;;;;;6336658;22;20015;-90
2023/12/24 18:08:23;;;;;;;30.75;6.03;;;12.10;99.90;;;;;;6341390;22;20009;-90
2023/12/24 18:10:57;;;;;;;32.72;5.75;;;12.20;99.90;;;;;;6346009;22;20030;-91
2023/12/24 18:14:02;;;;;;;34.17;5.97;;;12.40;99.90;;;;;;6357701;22;20022;-91
2023/12/24 18:16:52;;;;;;;53.53;7.57;;;12.20;99.90;;;;;;6345389;22;20013;-92
2023/12/24 18:19:17;;;;;;;38.63;6.22;;;11.90;99.90;;;;;;6317595;22;20019;-90
2023/12/24 18:22:05;;;;;;;36.03;7.03;;;12.20;99.90;;;;;;6345454;22;20453;-90
2023/12/24 18:24:47;;;;;;;39.85;5.95;;;12.20;99.90;;;;;;6342888;22;20327;-95
2023/12/24 18:27:30;;;;;;;41.25;6.10;;;12.40;99.90;;;;;;6358345;22;19999;-92
2023/12/24 18:30:06;;;;;;;37.85;7.05;;;12.30;99.90;;;;;;6287491;22;20521;-91
2023/12/24 18:32:34;;;;;;;47.33;7.00;;;11.00;99.90;;;;;;6272659;22;20126;-89
2023/12/24 18:35:01;;;;;;;43.05;6.85;;;13.30;99.90;;;;;;6271873;22;20042;-88
2023/12/24 18:37:29;;;;;;;35.80;6.38;;;13.20;99.90;;;;;;6281547;22;20023;-92